Time;durP1;ratioP1;P1;durP2;ratioP2;P2;SDS_P1;SDS_P2;PMS_P1;PMS_P2;Temp;Humidity;BMP_temperature;BMP_pressure;BME280_temperature;BME280_humidity;BME280_pressure;Samples;Min_cycle;Max_cycle;Signal;HPM_P1;HPM_P2
2022/12/27 00:02:19;;;;;;;9.00;8.27;;;3.50;99.90;;;;;;5032701;28;20187;-64
2022/12/27 00:04:45;;;;;;;7.87;7.57;;;3.50;99.90;;;;;;5032474;28;20580;-63
2022/12/27 00:07:10;;;;;;;8.97;8.47;;;3.50;99.90;;;;;;5032430;28;20207;-64
2022/12/27 00:09:36;;;;;;;9.13;8.53;;;3.60;99.90;;;;;;5025704;28;20287;-64
2022/12/27 00:12:02;;;;;;;9.57;9.07;;;3.60;99.90;;;;;;5023145;28;20641;-64
2022/12/27 00:14:27;;;;;;;8.63;8.23;;;3.50;99.90;;;;;;4999110;28;20678;-63
2022/12/27 00:16:53;;;;;;;9.80;9.20;;;3.40;99.90;;;;;;5014059;28;20187;-64
2022/12/27 00:19:18;;;;;;;11.07;10.17;;;3.50;99.90;;;;;;5021635;28;20168;-64
2022/12/27 00:21:44;;;;;;;9.73;9.13;;;3.50;99.90;;;;;;5021255;28;20208;-64
2022/12/27 00:24:10;;;;;;;9.63;8.83;;;3.50;99.90;;;;;;5000797;28;20546;-64
2022/12/27 00:26:36;;;;;;;8.70;8.10;;;3.60;99.90;;;;;;5003576;28;20206;-64
2022/12/27 00:29:02;;;;;;;9.10;8.70;;;3.50;99.90;;;;;;5022011;28;20273;-64
2022/12/27 00:31:30;;;;;;;9.73;8.80;;;3.50;99.90;;;;;;4998447;28;20305;-63
2022/12/27 00:34:00;;;;;;;8.63;8.13;;;3.50;99.90;;;;;;5021765;28;20679;-63
2022/12/27 00:36:29;;;;;;;8.57;7.97;;;3.50;99.90;;;;;;5022105;28;20650;-64
2022/12/27 00:38:56;;;;;;;8.50;7.80;;;3.60;99.90;;;;;;5005034;28;20473;-64
2022/12/27 00:41:22;;;;;;;8.17;7.53;;;3.60;99.90;;;;;;5023673;28;20262;-64
2022/12/27 00:43:48;;;;;;;8.43;7.83;;;3.60;99.90;;;;;;5027828;28;20191;-64
2022/12/27 00:46:14;;;;;;;8.10;7.60;;;3.50;99.90;;;;;;5024391;28;20650;-64
2022/12/27 00:48:40;;;;;;;7.37;6.97;;;3.50;99.90;;;;;;5028137;28;20706;-63
2022/12/27 00:51:18;;;;;;;9.33;8.63;;;3.50;99.90;;;;;;5030955;28;20183;-63
2022/12/27 00:53:44;;;;;;;8.00;7.40;;;3.50;99.90;;;;;;5012557;28;20211;-64
2022/12/27 00:56:14;;;;;;;7.83;7.47;;;3.50;99.90;;;;;;5022987;28;20653;-64
2022/12/27 00:58:39;;;;;;;7.43;6.93;;;3.50;99.90;;;;;;5027003;28;20585;-64
2022/12/27 01:01:18;;;;;;;7.10;6.70;;;3.50;99.90;;;;;;5019817;28;20195;-63
2022/12/27 01:03:43;;;;;;;9.67;7.00;;;3.50;99.90;;;;;;5020953;28;20333;-63
2022/12/27 01:06:15;;;;;;;9.53;7.30;;;3.50;99.90;;;;;;5021925;28;20274;-63
2022/12/27 01:08:41;;;;;;;9.37;7.10;;;3.60;99.90;;;;;;5025365;28;20250;-63
2022/12/27 01:11:08;;;;;;;7.37;6.77;;;3.60;99.90;;;;;;5019289;28;20271;-63
2022/12/27 01:13:34;;;;;;;11.17;7.17;;;3.60;99.90;;;;;;5006849;28;20236;-63
2022/12/27 01:16:00;;;;;;;7.43;7.03;;;3.60;99.90;;;;;;5007062;28;20191;-64
2022/12/27 01:18:25;;;;;;;7.30;6.90;;;3.60;99.90;;;;;;4999933;28;20238;-63
2022/12/27 01:20:51;;;;;;;8.33;7.70;;;3.70;99.90;;;;;;5025636;28;20560;-64
2022/12/27 01:23:17;;;;;;;7.97;7.50;;;3.70;99.90;;;;;;5021375;28;20187;-64
2022/12/27 01:25:42;;;;;;;8.20;7.73;;;3.80;99.90;;;;;;5011065;28;20192;-64
2022/12/27 01:28:08;;;;;;;7.90;7.50;;;3.80;99.90;;;;;;5021644;28;20558;-64
2022/12/27 01:30:33;;;;;;;9.77;9.23;;;3.80;99.90;;;;;;5019422;28;20184;-64
2022/12/27 01:32:59;;;;;;;8.47;8.07;;;3.80;99.90;;;;;;5023297;28;20218;-64
2022/12/27 01:35:25;;;;;;;8.10;7.40;;;3.80;99.90;;;;;;5018053;28;20183;-64
2022/12/27 01:37:51;;;;;;;8.43;7.80;;;3.90;99.90;;;;;;5019430;28;20293;-64
2022/12/27 01:40:17;;;;;;;9.67;8.73;;;3.90;99.90;;;;;;5022302;28;20266;-64
2022/12/27 01:42:52;;;;;;;11.13;8.53;;;4.00;99.90;;;;;;5006109;28;20214;-64
2022/12/27 01:45:23;;;;;;;11.20;9.00;;;4.00;99.90;;;;;;5009560;28;20229;-64
2022/12/27 01:47:57;;;;;;;8.83;8.43;;;4.00;99.90;;;;;;5015950;28;20290;-64
2022/12/27 01:50:32;;;;;;;10.40;8.63;;;4.00;99.90;;;;;;5019130;28;20666;-65
2022/12/27 01:53:20;;;;;;;9.13;8.70;;;4.00;99.90;;;;;;5025504;28;20211;-64
2022/12/27 01:55:55;;;;;;;8.80;8.40;;;4.00;99.90;;;;;;5031097;28;20187;-63
2022/12/27 01:58:26;;;;;;;10.27;9.53;;;4.00;99.90;;;;;;5030881;28;20209;-64
2022/12/27 02:00:52;;;;;;;9.57;9.17;;;3.90;99.90;;;;;;5030669;28;20195;-65
2022/12/27 02:03:41;;;;;;;10.40;9.90;;;3.90;99.90;;;;;;5032112;28;20187;-65
2022/12/27 02:06:09;;;;;;;9.70;9.30;;;3.90;99.90;;;;;;5035084;28;20191;-65
2022/12/27 02:08:50;;;;;;;10.57;9.90;;;3.90;99.90;;;;;;5017186;28;20625;-64
2022/12/27 02:11:49;;;;;;;9.07;8.23;;;3.90;99.90;;;;;;5034531;28;20811;-65
2022/12/27 02:14:04;;;;;;;8.67;7.87;;;3.90;99.90;;;;;;5034192;28;20682;-65
2022/12/27 02:16:30;;;;;;;8.07;7.67;;;4.00;99.90;;;;;;5035019;28;20171;-65
2022/12/27 02:18:55;;;;;;;7.87;7.53;;;3.90;99.90;;;;;;5034251;28;20211;-65
2022/12/27 02:21:54;;;;;;;7.63;7.33;;;4.00;99.90;;;;;;5034502;28;20702;-65
2022/12/27 02:24:53;;;;;;;7.40;7.10;;;4.00;99.90;;;;;;5026427;28;20592;-64
2022/12/27 02:27:41;;;;;;;6.50;6.20;;;4.00;99.90;;;;;;5008406;28;20217;-64
2022/12/27 02:30:08;;;;;;;7.50;6.17;;;4.00;99.90;;;;;;5025314;28;20183;-65
2022/12/27 02:32:34;;;;;;;7.40;6.37;;;4.00;99.90;;;;;;5030244;28;20187;-64
2022/12/27 02:35:30;;;;;;;7.93;7.20;;;4.00;99.90;;;;;;5006863;28;20194;-64
2022/12/27 02:38:32;;;;;;;6.90;6.40;;;4.00;99.90;;;;;;5023400;28;20227;-64
2022/12/27 02:55:28;;;;;;;6.00;5.70;;;4.00;99.90;;;;;;5021303;28;20194;-64
2022/12/27 02:58:11;;;;;;;5.77;5.47;;;4.00;99.90;;;;;;5004141;28;20290;-65
2022/12/27 03:04:13;;;;;;;5.70;5.50;;;4.00;99.90;;;;;;5024834;28;20198;-65
2022/12/27 03:06:45;;;;;;;6.20;5.67;;;4.00;99.90;;;;;;5027707;28;20178;-65
2022/12/27 03:17:58;;;;;;;6.63;6.10;;;4.00;99.90;;;;;;5025324;28;20329;-64
2022/12/27 03:25:55;;;;;;;7.13;6.10;;;4.10;99.90;;;;;;5021714;28;20591;-65
2022/12/27 03:34:31;;;;;;;7.13;6.63;;;4.10;99.90;;;;;;4952521;29;20205;-64
2022/12/27 03:40:12;;;;;;;6.77;6.30;;;4.10;99.90;;;;;;5020787;28;20271;-65
2022/12/27 03:48:25;;;;;;;8.23;6.70;;;4.20;99.90;;;;;;5028776;28;20220;-64
2022/12/27 03:51:03;;;;;;;12.13;6.87;;;4.20;99.90;;;;;;5012980;28;20180;-65
2022/12/27 03:53:36;;;;;;;7.90;7.13;;;4.20;99.90;;;;;;5031937;28;20209;-65
2022/12/27 03:56:03;;;;;;;6.73;6.43;;;4.20;99.90;;;;;;5015116;28;20175;-64
2022/12/27 03:58:29;;;;;;;7.37;6.77;;;4.10;99.90;;;;;;5032331;28;20199;-65
2022/12/27 04:00:54;;;;;;;7.50;7.00;;;4.20;99.90;;;;;;5014536;28;20599;-64
2022/12/27 04:03:20;;;;;;;6.77;6.40;;;4.20;99.90;;;;;;5032339;28;20179;-65
2022/12/27 04:05:46;;;;;;;7.03;6.73;;;4.10;99.90;;;;;;5014963;28;20183;-64
2022/12/27 04:35:32;;;;;;;8.87;8.37;;;4.10;99.90;;;;;;5016575;28;20182;-65
2022/12/27 04:37:57;;;;;;;7.93;7.33;;;4.10;99.90;;;;;;5019181;28;20302;-65
2022/12/27 04:57:03;;;;;;;7.03;5.93;;;4.20;99.90;;;;;;5024202;28;20226;-65
2022/12/27 05:02:14;;;;;;;6.17;5.77;;;4.30;99.90;;;;;;5023433;28;20190;-63
2022/12/27 05:04:40;;;;;;;5.90;5.50;;;4.40;99.90;;;;;;5025804;28;20184;-65
2022/12/27 05:15:22;;;;;;;6.40;6.10;;;4.40;99.90;;;;;;5020816;28;20583;-64
2022/12/27 05:17:48;;;;;;;6.83;6.10;;;4.40;99.90;;;;;;5022242;28;20199;-65
2022/12/27 05:20:14;;;;;;;6.57;6.17;;;4.40;99.90;;;;;;5023160;28;20184;-65
2022/12/27 05:25:37;;;;;;;7.67;6.97;;;4.40;99.90;;;;;;5016552;28;20240;-65
2022/12/27 05:28:05;;;;;;;6.23;5.83;;;4.50;99.90;;;;;;5026347;28;20217;-65
2022/12/27 05:30:39;;;;;;;6.63;6.23;;;4.60;99.90;;;;;;5018478;28;20218;-65
2022/12/27 05:33:05;;;;;;;6.53;6.13;;;4.60;99.90;;;;;;5004448;28;20223;-65
2022/12/27 05:35:33;;;;;;;7.40;6.60;;;4.60;99.90;;;;;;5018545;28;20184;-65
2022/12/27 05:37:59;;;;;;;9.13;6.67;;;4.50;99.90;;;;;;5021645;28;20221;-64
2022/12/27 05:40:25;;;;;;;6.73;6.03;;;4.50;99.90;;;;;;5006150;28;20183;-64
2022/12/27 05:42:50;;;;;;;6.60;6.10;;;4.50;99.90;;;;;;5028436;28;20267;-64
2022/12/27 05:45:16;;;;;;;6.53;6.10;;;4.50;99.90;;;;;;5023122;28;20212;-64
2022/12/27 05:47:42;;;;;;;7.67;7.03;;;4.40;99.90;;;;;;5026441;28;20226;-65
2022/12/27 05:50:09;;;;;;;6.47;6.07;;;4.40;99.90;;;;;;5034830;28;20188;-65
2022/12/27 05:52:34;;;;;;;7.20;6.50;;;4.40;99.90;;;;;;5015870;28;20657;-65
2022/12/27 05:55:00;;;;;;;6.13;5.73;;;4.40;99.90;;;;;;5017947;28;20211;-65
2022/12/27 05:57:26;;;;;;;7.13;6.10;;;4.40;99.90;;;;;;5034776;28;20203;-65
2022/12/27 05:59:52;;;;;;;7.60;6.30;;;4.40;99.90;;;;;;5034307;28;20249;-65
2022/12/27 06:02:17;;;;;;;5.47;5.27;;;4.40;99.90;;;;;;5034927;28;20245;-64
2022/12/27 06:04:43;;;;;;;8.67;5.83;;;4.40;99.90;;;;;;5034892;28;20630;-65
2022/12/27 06:07:10;;;;;;;6.97;6.47;;;4.40;99.90;;;;;;5035272;28;20274;-65
2022/12/27 06:09:36;;;;;;;6.23;5.93;;;4.30;99.90;;;;;;5034268;28;20183;-65
2022/12/27 06:12:01;;;;;;;5.50;5.23;;;4.30;99.90;;;;;;5034828;28;20532;-65
2022/12/27 06:14:27;;;;;;;7.73;7.13;;;4.30;99.90;;;;;;5034536;28;20209;-65
2022/12/27 06:16:53;;;;;;;6.47;5.67;;;4.30;99.90;;;;;;5034747;28;20183;-64
2022/12/27 06:19:18;;;;;;;6.00;5.70;;;4.30;99.90;;;;;;5034146;28;20202;-64
2022/12/27 06:21:44;;;;;;;5.97;5.67;;;4.30;99.90;;;;;;5033359;28;20184;-65
2022/12/27 06:24:09;;;;;;;6.33;6.03;;;4.30;99.90;;;;;;5021110;28;20638;-65
2022/12/27 06:26:35;;;;;;;7.63;7.03;;;4.30;99.90;;;;;;5022062;28;20184;-65
2022/12/27 06:29:00;;;;;;;6.70;6.30;;;4.30;99.90;;;;;;5022902;28;20633;-64
2022/12/27 06:31:27;;;;;;;6.97;6.40;;;4.20;99.90;;;;;;5027031;28;20196;-64
2022/12/27 06:33:53;;;;;;;6.57;6.17;;;4.20;99.90;;;;;;5020550;28;20215;-64
2022/12/27 06:36:23;;;;;;;6.20;5.90;;;4.20;99.90;;;;;;5022883;28;20661;-64
2022/12/27 06:38:48;;;;;;;6.90;6.43;;;4.20;99.90;;;;;;5027880;28;20215;-65
2022/12/27 06:41:17;;;;;;;7.43;6.93;;;4.20;99.90;;;;;;5026686;28;20231;-65
2022/12/27 06:43:43;;;;;;;6.50;6.20;;;4.20;99.90;;;;;;5005947;28;20192;-65
2022/12/27 06:46:11;;;;;;;8.63;7.80;;;4.30;99.90;;;;;;5011818;28;20565;-64
2022/12/27 06:48:37;;;;;;;8.07;5.80;;;4.30;99.90;;;;;;5031552;28;20738;-65
2022/12/27 06:51:08;;;;;;;6.80;6.40;;;4.30;99.90;;;;;;5032347;28;20191;-64
2022/12/27 06:53:35;;;;;;;6.60;6.20;;;4.30;99.90;;;;;;5024976;28;20235;-65
2022/12/27 06:56:09;;;;;;;6.67;5.93;;;4.40;99.90;;;;;;5020773;28;20241;-65
2022/12/27 06:58:35;;;;;;;6.10;5.80;;;4.40;99.90;;;;;;5023127;28;20225;-65
2022/12/27 07:01:07;;;;;;;6.00;5.70;;;4.40;99.90;;;;;;5024215;28;20176;-65
2022/12/27 07:03:33;;;;;;;5.60;5.40;;;4.40;99.90;;;;;;5027360;28;20206;-63
2022/12/27 07:06:03;;;;;;;6.77;6.30;;;4.40;99.90;;;;;;5005258;28;20188;-65
2022/12/27 07:08:29;;;;;;;6.87;6.07;;;4.40;99.90;;;;;;5020930;28;20207;-65
2022/12/27 07:11:02;;;;;;;6.37;6.07;;;4.30;99.90;;;;;;5020234;28;20195;-63
2022/12/27 07:13:31;;;;;;;6.30;6.00;;;4.30;99.90;;;;;;5009930;28;20212;-65
2022/12/27 07:15:57;;;;;;;6.27;5.87;;;4.30;99.90;;;;;;5023231;28;20595;-64
2022/12/27 07:18:22;;;;;;;6.40;6.07;;;4.20;99.90;;;;;;5021054;28;20237;-65
2022/12/27 07:20:48;;;;;;;7.27;6.73;;;4.20;99.90;;;;;;5025807;28;20603;-64
2022/12/27 07:23:14;;;;;;;9.50;6.40;;;4.20;99.90;;;;;;5022501;28;20184;-65
2022/12/27 07:25:40;;;;;;;5.93;5.63;;;4.20;99.90;;;;;;5022979;28;20191;-64
2022/12/27 07:28:05;;;;;;;6.80;6.33;;;4.20;99.90;;;;;;5030278;28;20618;-63
2022/12/27 07:30:31;;;;;;;6.40;5.90;;;4.20;99.90;;;;;;5020459;28;20242;-63
2022/12/27 07:32:57;;;;;;;6.70;6.37;;;4.20;99.90;;;;;;5022779;28;20597;-64
2022/12/27 07:35:22;;;;;;;9.50;6.90;;;4.10;99.90;;;;;;5022481;28;20188;-64
2022/12/27 07:37:48;;;;;;;6.63;6.13;;;4.10;99.90;;;;;;5022794;28;20718;-65
2022/12/27 07:40:13;;;;;;;6.67;6.27;;;4.00;99.90;;;;;;5016647;28;20188;-64
2022/12/27 07:42:39;;;;;;;6.30;5.83;;;4.00;99.90;;;;;;5028042;28;20270;-65
2022/12/27 07:45:05;;;;;;;6.57;6.27;;;4.00;99.90;;;;;;5025090;28;20191;-65
2022/12/27 07:47:31;;;;;;;6.90;6.33;;;4.00;99.90;;;;;;5024359;28;20595;-64
2022/12/27 07:49:56;;;;;;;10.23;6.67;;;4.00;99.90;;;;;;5033016;28;20186;-64
2022/12/27 07:52:22;;;;;;;6.97;6.47;;;4.00;99.90;;;;;;5032710;28;20253;-64
2022/12/27 07:54:47;;;;;;;5.80;5.60;;;4.10;99.90;;;;;;5032914;28;20211;-64
2022/12/27 07:57:13;;;;;;;7.03;6.40;;;4.10;99.90;;;;;;5014822;28;20609;-64
2022/12/27 07:59:39;;;;;;;7.10;6.70;;;4.10;99.90;;;;;;5032807;28;21166;-64
2022/12/27 08:02:05;;;;;;;7.07;6.57;;;4.10;99.90;;;;;;5032018;28;20692;-62
2022/12/27 08:04:33;;;;;;;7.17;6.67;;;4.10;99.90;;;;;;5033056;28;20179;-63
2022/12/27 08:07:04;;;;;;;7.50;7.00;;;4.20;99.90;;;;;;5032279;28;20199;-65
2022/12/27 08:09:35;;;;;;;7.47;6.87;;;4.20;99.90;;;;;;5032682;28;20258;-65
2022/12/27 08:12:00;;;;;;;10.03;6.30;;;4.20;99.90;;;;;;5031534;28;20175;-63
2022/12/27 08:14:26;;;;;;;6.17;5.87;;;4.30;99.90;;;;;;5032684;28;20705;-62
2022/12/27 08:16:52;;;;;;;6.53;6.23;;;4.30;99.90;;;;;;5031358;28;20183;-65
2022/12/27 08:19:18;;;;;;;5.70;5.40;;;4.40;99.90;;;;;;5012834;28;20259;-64
2022/12/27 08:21:44;;;;;;;6.27;5.87;;;4.40;99.90;;;;;;5018396;28;20263;-65
2022/12/27 08:24:09;;;;;;;6.40;6.10;;;4.50;99.90;;;;;;5028368;28;20184;-64
2022/12/27 08:26:35;;;;;;;7.17;6.17;;;4.50;99.90;;;;;;5003550;28;20192;-65
2022/12/27 08:29:00;;;;;;;7.30;6.73;;;4.60;99.90;;;;;;5003014;28;20279;-65
2022/12/27 08:31:26;;;;;;;6.43;6.03;;;4.60;99.90;;;;;;5025746;28;20230;-65
2022/12/27 08:33:51;;;;;;;12.33;6.53;;;4.60;99.90;;;;;;5024700;28;20210;-65
2022/12/27 08:36:17;;;;;;;6.47;6.17;;;4.70;99.90;;;;;;5028475;28;20219;-65
2022/12/27 08:38:43;;;;;;;6.67;6.03;;;4.70;99.90;;;;;;5028166;28;20657;-64
2022/12/27 08:41:08;;;;;;;5.93;5.63;;;4.70;99.90;;;;;;5029723;28;20180;-65
2022/12/27 08:43:34;;;;;;;5.83;5.43;;;4.80;99.90;;;;;;5030367;28;20249;-64
2022/12/27 08:46:04;;;;;;;5.80;5.50;;;4.80;99.90;;;;;;5028981;28;20179;-64
2022/12/27 08:48:32;;;;;;;7.10;6.70;;;4.90;99.90;;;;;;5029295;28;20214;-64
2022/12/27 08:51:08;;;;;;;5.67;5.37;;;4.90;99.90;;;;;;5028195;28;20183;-65
2022/12/27 08:54:03;;;;;;;6.97;6.30;;;5.00;99.90;;;;;;5023670;28;20203;-65
2022/12/27 08:56:28;;;;;;;5.80;5.57;;;5.10;99.90;;;;;;5024268;28;20188;-64
2022/12/27 08:58:54;;;;;;;6.60;6.03;;;5.20;99.90;;;;;;5026369;28;20218;-65
2022/12/27 09:01:19;;;;;;;6.33;5.93;;;5.20;99.90;;;;;;5028109;28;20250;-65
2022/12/27 09:03:45;;;;;;;6.03;5.57;;;5.40;99.90;;;;;;5027219;28;20329;-65
2022/12/27 09:06:17;;;;;;;5.43;5.10;;;5.70;99.90;;;;;;5024560;28;20612;-65
2022/12/27 09:08:44;;;;;;;6.37;5.73;;;6.20;99.90;;;;;;5019795;28;20574;-65
2022/12/27 09:11:12;;;;;;;17.87;7.17;;;6.50;99.90;;;;;;5028554;28;20218;-65
2022/12/27 09:13:38;;;;;;;8.47;7.67;;;6.90;99.90;;;;;;5005963;28;20206;-65
2022/12/27 09:16:13;;;;;;;7.73;6.37;;;7.10;99.90;;;;;;5021097;28;20179;-65
2022/12/27 09:18:41;;;;;;;8.77;6.27;;;7.30;99.90;;;;;;5016734;28;20580;-65
2022/12/27 09:21:09;;;;;;;5.93;5.53;;;7.50;99.90;;;;;;5026256;28;20237;-65
2022/12/27 09:23:35;;;;;;;12.03;7.73;;;7.80;99.90;;;;;;5029297;28;20596;-63
2022/12/27 09:26:09;;;;;;;7.63;5.93;;;7.90;99.90;;;;;;5021167;28;20662;-65
2022/12/27 09:28:35;;;;;;;9.27;6.13;;;8.00;99.90;;;;;;5017543;28;20208;-65
2022/12/27 09:31:01;;;;;;;6.73;6.13;;;8.20;99.90;;;;;;5021996;28;20253;-63
2022/12/27 09:33:28;;;;;;;6.63;6.03;;;8.40;99.90;;;;;;5012661;28;20207;-65
2022/12/27 09:36:19;;;;;;;5.17;4.97;;;8.60;99.90;;;;;;5029547;28;20175;-64
2022/12/27 09:38:46;;;;;;;8.80;5.93;;;8.80;86.20;;;;;;5011080;28;20234;-63
2022/12/27 09:41:33;;;;;;;5.20;4.70;;;8.90;52.00;;;;;;5025818;28;20179;-66
2022/12/27 09:44:07;;;;;;;5.20;4.70;;;9.00;54.40;;;;;;5016906;28;20203;-66
2022/12/27 09:47:02;;;;;;;4.47;4.27;;;9.10;34.30;;;;;;5024480;28;20187;-64
2022/12/27 09:49:51;;;;;;;10.67;5.10;;;9.20;37.40;;;;;;5024562;28;20184;-66
2022/12/27 09:52:28;;;;;;;4.67;4.27;;;9.30;23.80;;;;;;5019294;28;20186;-64
2022/12/27 09:55:03;;;;;;;4.53;4.13;;;9.20;14.90;;;;;;5020419;28;20577;-64
2022/12/27 09:57:41;;;;;;;7.33;4.23;;;9.30;24.70;;;;;;5016486;28;20280;-63
2022/12/27 10:00:23;;;;;;;4.70;4.40;;;9.60;26.90;;;;;;5019283;28;20641;-63
2022/12/27 10:02:50;;;;;;;5.07;4.77;;;9.70;1.00;;;;;;5022140;28;20182;-63
2022/12/27 10:05:22;;;;;;;5.30;4.90;;;9.80;1.00;;;;;;5023120;28;20274;-63
2022/12/27 10:08:18;;;;;;;5.10;4.53;;;10.00;1.00;;;;;;5023705;28;20218;-63
2022/12/27 10:11:34;;;;;;;5.43;5.03;;;10.10;1.00;;;;;;5021273;28;20247;-64
2022/12/27 10:14:05;;;;;;;4.80;4.50;;;10.10;1.00;;;;;;5019463;28;20756;-64
2022/12/27 10:16:50;;;;;;;7.67;5.00;;;10.00;1.00;;;;;;5018213;28;20186;-64
2022/12/27 10:19:34;;;;;;;7.33;4.57;;;10.00;1.00;;;;;;5021031;28;20179;-64
2022/12/27 10:22:23;;;;;;;5.10;4.60;;;10.00;1.00;;;;;;5020361;28;20187;-64
2022/12/27 10:24:58;;;;;;;4.93;4.60;;;10.30;1.00;;;;;;5024200;28;20545;-63
2022/12/27 10:27:26;;;;;;;5.50;5.00;;;10.30;1.00;;;;;;5028595;28;20214;-63
2022/12/27 10:29:53;;;;;;;5.03;4.73;;;10.40;1.00;;;;;;5028971;28;20195;-64
2022/12/27 10:32:19;;;;;;;5.07;4.70;;;10.20;1.00;;;;;;5029420;28;20274;-64
2022/12/27 10:34:45;;;;;;;5.07;4.70;;;10.20;1.00;;;;;;5027811;28;20302;-63
2022/12/27 10:37:15;;;;;;;7.00;5.53;;;10.10;1.00;;;;;;5025232;28;20208;-63
2022/12/27 10:39:41;;;;;;;6.93;5.00;;;10.20;1.00;;;;;;5026692;28;20267;-63
2022/12/27 10:42:37;;;;;;;5.37;4.83;;;10.30;1.00;;;;;;5022044;28;20183;-63
2022/12/27 10:45:41;;;;;;;5.93;5.63;;;10.30;1.00;;;;;;5023699;28;20271;-63
2022/12/27 10:48:27;;;;;;;5.83;4.93;;;10.20;1.00;;;;;;4941975;28;20289;-63
2022/12/27 10:51:00;;;;;;;4.57;4.33;;;10.10;1.00;;;;;;5022943;28;20227;-64
2022/12/27 10:53:44;;;;;;;4.80;4.47;;;10.10;1.00;;;;;;5007250;28;20708;-64
2022/12/27 10:56:09;;;;;;;5.10;4.80;;;10.30;1.00;;;;;;5017961;28;20192;-63
2022/12/27 10:58:41;;;;;;;9.47;4.50;;;10.20;1.00;;;;;;5019716;28;20219;-64
2022/12/27 11:01:27;;;;;;;5.07;4.77;;;10.20;1.00;;;;;;5009279;28;20191;-64
2022/12/27 11:04:18;;;;;;;5.40;4.67;;;10.10;1.00;;;;;;5022351;28;20226;-63
2022/12/27 11:06:45;;;;;;;4.97;4.70;;;10.00;1.00;;;;;;5013258;28;20669;-64
2022/12/27 11:09:19;;;;;;;5.17;4.63;;;10.10;1.00;;;;;;5005967;28;20680;-63
2022/12/27 11:11:45;;;;;;;5.60;4.80;;;10.10;1.00;;;;;;5002318;28;20569;-63
2022/12/27 11:14:17;;;;;;;4.70;4.30;;;9.80;1.00;;;;;;5022008;28;20218;-63
2022/12/27 11:16:43;;;;;;;6.07;5.53;;;9.30;1.00;;;;;;5009437;28;20675;-63
2022/12/27 11:19:20;;;;;;;6.87;6.37;;;9.00;30.00;;;;;;5028061;28;20551;-63
2022/12/27 11:21:46;;;;;;;6.63;6.33;;;8.80;60.80;;;;;;5026979;28;20202;-64
2022/12/27 11:24:16;;;;;;;5.60;5.40;;;8.70;76.50;;;;;;5024286;28;20211;-64
2022/12/27 11:26:58;;;;;;;9.67;5.43;;;8.70;91.80;;;;;;5020254;28;20192;-64
2022/12/27 11:29:26;;;;;;;8.40;6.00;;;8.80;93.00;;;;;;5027777;28;20184;-64
2022/12/27 11:31:53;;;;;;;6.07;5.77;;;8.80;82.50;;;;;;5027788;28;20175;-64
2022/12/27 11:34:25;;;;;;;5.63;5.23;;;8.80;74.50;;;;;;5029885;28;20211;-63
2022/12/27 11:36:54;;;;;;;6.50;6.00;;;8.80;57.10;;;;;;5020600;28;20184;-63
2022/12/27 11:39:48;;;;;;;5.57;5.10;;;8.80;69.30;;;;;;5012870;28;20176;-64
2022/12/27 11:42:19;;;;;;;5.13;4.80;;;9.00;96.30;;;;;;5009568;28;20175;-64
2022/12/27 11:44:58;;;;;;;5.20;4.80;;;9.30;69.00;;;;;;5032897;28;20624;-64
2022/12/27 11:47:44;;;;;;;4.63;4.43;;;9.50;46.10;;;;;;5032949;28;20564;-64
2022/12/27 11:50:39;;;;;;;5.40;5.03;;;9.40;11.10;;;;;;5033151;28;20175;-64
2022/12/27 11:53:14;;;;;;;6.17;5.57;;;9.30;26.10;;;;;;5033030;28;20222;-64
2022/12/27 11:56:04;;;;;;;5.43;5.03;;;9.20;47.00;;;;;;5033071;28;20167;-64
2022/12/27 11:58:51;;;;;;;5.33;4.87;;;9.20;36.70;;;;;;5013162;28;20681;-63
2022/12/27 12:01:34;;;;;;;4.53;4.23;;;9.50;51.40;;;;;;5016453;28;20172;-64
2022/12/27 12:04:46;;;;;;;4.80;4.43;;;10.00;1.00;;;;;;5032676;28;20190;-64
2022/12/27 12:07:45;;;;;;;4.93;4.63;;;10.70;1.00;;;;;;5033000;28;20195;-64
2022/12/27 12:10:28;;;;;;;7.50;4.50;;;11.20;1.00;;;;;;5032417;28;20191;-64
2022/12/27 12:13:06;;;;;;;4.33;4.03;;;11.20;99.90;;;;;;5032801;28;20175;-64
2022/12/27 12:15:53;;;;;;;4.40;4.10;;;11.00;1.00;;;;;;5032576;28;20219;-64
2022/12/27 12:18:36;;;;;;;9.87;4.63;;;10.80;1.00;;;;;;5032648;28;20197;-64
2022/12/27 12:21:35;;;;;;;6.03;5.47;;;10.60;99.90;;;;;;5032205;28;20667;-64
2022/12/27 12:24:41;;;;;;;6.03;4.73;;;10.40;99.90;;;;;;5032386;28;20186;-64
2022/12/27 12:27:06;;;;;;;5.53;5.23;;;10.10;99.90;;;;;;5012717;28;20219;-64
2022/12/27 12:29:57;;;;;;;5.50;5.00;;;9.90;29.70;;;;;;5016111;28;20182;-64
2022/12/27 12:32:31;;;;;;;4.70;4.40;;;9.80;99.90;;;;;;5032614;28;20175;-64
2022/12/27 12:35:26;;;;;;;5.17;4.73;;;9.60;99.90;;;;;;5032235;28;20222;-64
2022/12/27 12:38:13;;;;;;;7.73;5.00;;;9.50;99.90;;;;;;5018937;28;20771;-64
2022/12/27 12:40:44;;;;;;;7.77;5.23;;;9.50;1.00;;;;;;5014143;28;20437;-64
2022/12/27 12:43:28;;;;;;;5.27;4.87;;;9.40;1.00;;;;;;5032446;28;20189;-64
2022/12/27 12:46:21;;;;;;;6.20;5.70;;;9.50;99.90;;;;;;5031757;28;20711;-64
2022/12/27 12:49:08;;;;;;;5.00;4.70;;;9.50;1.00;;;;;;5014547;28;20199;-64
2022/12/27 12:51:52;;;;;;;5.87;5.47;;;9.40;24.00;;;;;;5031704;28;20707;-64
2022/12/27 12:54:37;;;;;;;4.97;4.60;;;9.40;1.00;;;;;;5032121;28;20207;-64
2022/12/27 12:57:33;;;;;;;13.87;6.03;;;9.50;99.90;;;;;;5012266;28;20754;-64
2022/12/27 13:00:27;;;;;;;5.33;5.00;;;9.50;30.00;;;;;;5011925;28;20183;-64
2022/12/27 13:02:52;;;;;;;5.83;5.10;;;9.50;99.90;;;;;;5015715;28;20279;-64
2022/12/27 13:05:33;;;;;;;6.87;5.87;;;9.50;99.90;;;;;;5014401;28;20688;-65
2022/12/27 13:08:29;;;;;;;5.70;5.27;;;9.50;99.90;;;;;;5031512;28;20598;-64
2022/12/27 13:11:19;;;;;;;5.40;5.00;;;9.60;99.90;;;;;;5031292;28;20195;-63
2022/12/27 13:13:53;;;;;;;9.63;7.77;;;9.60;39.80;;;;;;5013980;28;20211;-64
2022/12/27 13:16:56;;;;;;;8.33;4.90;;;9.50;99.90;;;;;;5031504;28;20644;-63
2022/12/27 13:19:39;;;;;;;5.27;4.90;;;9.40;1.00;;;;;;5031484;28;20164;-64
2022/12/27 13:22:20;;;;;;;5.70;5.20;;;9.40;99.90;;;;;;5031431;28;20521;-64
2022/12/27 13:25:03;;;;;;;9.83;5.27;;;9.40;1.00;;;;;;5011992;28;20187;-64
2022/12/27 13:27:41;;;;;;;6.73;6.23;;;9.30;1.00;;;;;;5011364;28;20203;-64
2022/12/27 13:30:20;;;;;;;6.07;4.93;;;9.30;1.00;;;;;;5017856;28;20279;-64
2022/12/27 13:33:08;;;;;;;5.17;4.87;;;9.20;1.00;;;;;;5011822;28;20550;-64
2022/12/27 13:35:37;;;;;;;6.73;5.40;;;9.10;99.90;;;;;;5012330;28;20180;-64
2022/12/27 13:38:41;;;;;;;6.07;5.53;;;9.10;1.00;;;;;;5031237;28;20286;-64
2022/12/27 13:41:30;;;;;;;7.63;5.43;;;9.10;1.00;;;;;;5013029;28;20171;-64
2022/12/27 13:44:04;;;;;;;8.10;6.30;;;9.00;1.00;;;;;;5031144;28;20671;-65
2022/12/27 13:46:41;;;;;;;7.67;6.47;;;8.90;1.00;;;;;;5031291;28;20183;-64
2022/12/27 13:49:26;;;;;;;6.03;5.60;;;8.90;1.00;;;;;;5030953;28;20182;-63
2022/12/27 13:51:55;;;;;;;12.20;7.37;;;8.90;1.00;;;;;;5030777;28;20249;-64
2022/12/27 13:54:54;;;;;;;8.67;7.63;;;9.00;23.60;;;;;;5013624;28;20214;-64
2022/12/27 13:57:54;;;;;;;13.30;8.90;;;9.00;81.30;;;;;;5031250;28;20321;-64
2022/12/27 14:00:22;;;;;;;10.50;6.43;;;9.10;99.90;;;;;;5037591;28;20645;-64
2022/12/27 14:03:15;;;;;;;8.43;7.03;;;9.10;88.20;;;;;;5039652;28;20186;-64
2022/12/27 14:05:59;;;;;;;9.93;6.37;;;9.10;28.40;;;;;;5038407;28;20495;-64
2022/12/27 14:08:37;;;;;;;6.47;5.87;;;9.10;98.40;;;;;;5018815;28;20283;-63
2022/12/27 14:11:10;;;;;;;5.80;5.50;;;9.10;1.00;;;;;;5015190;28;20654;-64
2022/12/27 14:13:41;;;;;;;5.93;5.53;;;9.10;1.00;;;;;;4998022;28;20238;-64
2022/12/27 14:16:25;;;;;;;6.27;5.30;;;9.00;1.00;;;;;;5015062;28;20666;-64
2022/12/27 14:19:12;;;;;;;6.27;5.60;;;9.00;16.90;;;;;;5016045;28;20250;-65
2022/12/27 14:21:59;;;;;;;19.53;6.60;;;8.90;32.10;;;;;;5034561;28;20202;-64
2022/12/27 14:24:43;;;;;;;6.40;5.87;;;8.90;99.90;;;;;;4997070;28;20180;-64
2022/12/27 14:27:15;;;;;;;6.23;5.73;;;8.90;58.30;;;;;;5014590;28;20202;-63
2022/12/27 14:30:02;;;;;;;6.80;6.27;;;8.90;46.70;;;;;;5017369;28;20633;-64
2022/12/27 14:32:46;;;;;;;7.63;5.87;;;8.80;1.00;;;;;;5034893;28;20543;-64
2022/12/27 14:35:33;;;;;;;6.23;5.63;;;8.80;1.00;;;;;;5034476;28;20232;-63
2022/12/27 14:38:27;;;;;;;6.47;6.03;;;8.70;1.00;;;;;;5065313;22;20227;-66
2022/12/27 14:41:44;;;;;;;6.73;5.10;;;8.80;99.90;;;;;;5094384;28;20196;-64
2022/12/27 14:44:37;;;;;;;5.37;4.97;;;8.80;99.90;;;;;;5068355;28;20185;-66
2022/12/27 14:47:40;;;;;;;6.10;5.43;;;8.80;1.00;;;;;;5094983;28;20646;-65
2022/12/27 14:50:27;;;;;;;6.07;5.77;;;8.80;99.90;;;;;;5056628;28;20177;-67
2022/12/27 14:53:18;;;;;;;5.73;5.50;;;8.70;99.90;;;;;;5074126;28;20714;-65
2022/12/27 14:55:59;;;;;;;6.27;5.73;;;8.70;1.00;;;;;;5071924;28;20185;-65
2022/12/27 14:58:51;;;;;;;5.83;5.40;;;8.70;1.00;;;;;;5053874;28;20182;-65
2022/12/27 15:01:56;;;;;;;5.83;5.53;;;8.70;1.00;;;;;;5056178;28;20194;-66
2022/12/27 15:04:51;;;;;;;5.90;5.63;;;8.70;1.00;;;;;;5056311;28;20189;-66
2022/12/27 15:07:32;;;;;;;7.10;5.47;;;8.70;1.00;;;;;;5073547;28;20623;-66
2022/12/27 15:10:01;;;;;;;7.37;6.03;;;8.70;1.00;;;;;;5053207;28;20203;-66
2022/12/27 15:13:04;;;;;;;5.87;5.47;;;8.70;99.90;;;;;;5053782;28;20179;-66
2022/12/27 15:15:46;;;;;;;5.27;5.07;;;8.60;99.90;;;;;;5051865;28;20202;-66
2022/12/27 15:18:42;;;;;;;5.87;5.37;;;8.60;1.00;;;;;;5073706;28;20217;-66
2022/12/27 15:21:26;;;;;;;5.40;5.13;;;8.50;1.00;;;;;;5073331;28;20598;-66